Aegean Viii — SXKO — position and weather

sailwx.info

Track history (hours):
 
Tides and Currents Weather Stations Pressure Air Temp Water Temp Dewpoint Dewpoint Depression Visibility Wind Speed Wind Dir Waves Ship Positions

Aegean Viii

Last reported at 2015-Apr-21 11:33 UTC. Time now 2015-Apr-21 19:07 UTC.
Position N 38°02' E 023°32'.

Length 12 m; draft 4.5 m.

Type: Tanker. MMSI: 240732000.

Date/timePositionNaut miles runAvg speedWind from/ knotsBaromVisibWave heightAir tempDewpointWater temp
2015-Apr-21 11:33N 38°02' E 023°32'6 5.6
2015-Apr-21 10:33N 37°57' E 023°34'6 5.7
2015-Apr-21 09:33N 37°52' E 023°32'0 0.0
2015-Apr-21 08:33N 37°52' E 023°32'0 0.0
2015-Apr-21 07:33N 37°52' E 023°32'0 0.0
2015-Apr-21 06:33N 37°52' E 023°32'4 3.9
2015-Apr-21 05:33N 37°55' E 023°34'7 7.1
2015-Apr-21 04:33N 38°02' E 023°32'0 0.1
2015-Apr-21 03:33N 38°02' E 023°32'0 0.0
2015-Apr-21 02:33N 38°02' E 023°32'0 0.0
2015-Apr-20 17:30N 38°02' E 023°32'2 2.2
2015-Apr-20 16:33N 38°02' E 023°35'1 0.3
2015-Apr-20 13:32N 38°02' E 023°36'0 0.0
2015-Apr-20 11:17N 38°02' E 023°36'0 0.0
2015-Apr-20 10:33N 38°02' E 023°36'1 0.8
2015-Apr-20 09:33N 38°02' E 023°35'0 0.1
2015-Apr-20 08:33N 38°02' E 023°35'2 2.2
2015-Apr-20 07:33N 38°02' E 023°32'0 0.0
2015-Apr-20 06:33N 38°02' E 023°32'0 0.0
2015-Apr-20 05:33N 38°02' E 023°32'0 0.0
2015-Apr-20 04:33N 38°02' E 023°32'3 0.1
2015-Apr-19 00:24N 38°02' E 023°36'0 0.0
2015-Apr-18 23:33N 38°02' E 023°36'0 0.0
2015-Apr-18 22:33N 38°02' E 023°36'0 0.0
2015-Apr-18 21:33N 38°02' E 023°36'1 0.9
2015-Apr-18 20:29N 38°01' E 023°35'0 0.0
2015-Apr-18 19:19N 38°01' E 023°35'0 0.1
2015-Apr-18 18:33N 38°01' E 023°35'0 0.0
2015-Apr-18 17:32N 38°01' E 023°35'0 0.1
2015-Apr-18 16:33N 38°01' E 023°35'0 0.1
2015-Apr-18 15:33N 38°01' E 023°35'4 4.2
2015-Apr-18 14:33N 37°57' E 023°34'2 1.6
2015-Apr-18 13:33N 37°57' E 023°36'0 0.0
2015-Apr-18 12:33N 37°57' E 023°36'1 0.9
2015-Apr-18 11:33N 37°57' E 023°36'1 1.4
2015-Apr-18 10:33N 37°56' E 023°38'0 0.0
2015-Apr-18 09:33N 37°56' E 023°38'0 0.1
2015-Apr-18 08:33N 37°56' E 023°38'0 0.2
2015-Apr-18 07:33N 37°56' E 023°38'0 0.0
2015-Apr-18 06:33N 37°56' E 023°38'0 0.0
2015-Apr-18 05:33N 37°56' E 023°38'0 0.0
2015-Apr-18 04:33N 37°56' E 023°38'4 4.3
2015-Apr-18 03:33N 37°58' E 023°33'5 4.8
2015-Apr-18 02:33N 38°02' E 023°32'0 0.0
2015-Apr-18 01:33N 38°02' E 023°32'0 0.0
2015-Apr-17 10:33N 38°02' E 023°32'0 0.0
2015-Apr-17 09:33N 38°02' E 023°32'0 0.0
2015-Apr-17 08:33N 38°02' E 023°32'3 3.1
2015-Apr-17 07:33N 37°59' E 023°33'4 1.1
2015-Apr-17 03:33N 37°56' E 023°37'2 2.2
2015-Apr-17 02:33N 37°57' E 023°35'0 0.0
2015-Apr-17 01:33N 37°57' E 023°35'0 0.1
2015-Apr-17 00:31N 37°57' E 023°35'0 0.1
2015-Apr-16 23:33N 37°57' E 023°34'0 0.0
2015-Apr-16 22:32N 37°57' E 023°34'0 0.0
2015-Apr-16 21:33N 37°57' E 023°34'0 0.0
2015-Apr-16 20:33N 37°57' E 023°34'0 0.0
2015-Apr-16 19:33N 37°57' E 023°34'0 0.0
2015-Apr-16 18:33N 37°57' E 023°34'0 0.0
2015-Apr-16 17:33N 37°57' E 023°34'2 1.7
2015-Apr-16 16:32N 37°58' E 023°33'4 0.4
2015-Apr-16 07:19N 38°02' E 023°32'0 0.0
2015-Apr-14 11:33N 38°02' E 023°32'4 4.3
2015-Apr-14 10:34N 37°58' E 023°33'5 4.5
2015-Apr-14 09:32N 37°56' E 023°38'0 0.0
2015-Apr-14 08:33N 37°56' E 023°38'0 0.0
2015-Apr-14 07:33N 37°56' E 023°38'0 0.0
2015-Apr-14 06:34N 37°56' E 023°38'0 0.0
2015-Apr-14 05:34N 37°56' E 023°38'4 4.4
2015-Apr-14 04:34N 37°58' E 023°33'5 4.7
2015-Apr-14 03:34N 38°02' E 023°32'0 0.0
2015-Apr-14 02:34N 38°02' E 023°32'0 0.0
2015-Apr-14 01:34N 38°02' E 023°32'0 0.0
2015-Apr-14 00:34N 38°02' E 023°32'0 0.0
2015-Apr-12 15:12N 38°02' E 023°32'3 4.1
2015-Apr-12 14:32N 38°02' E 023°35'0 0.3
2015-Apr-12 13:33N 38°02' E 023°36'0 0.0
2015-Apr-12 12:33N 38°02' E 023°36'0 0.0
2015-Apr-12 11:33N 38°02' E 023°36'5 4.8
2015-Apr-12 10:34N 37°57' E 023°35'2 2.4
2015-Apr-12 09:33N 37°56' E 023°38'0 0.0
2015-Apr-12 08:34N 37°56' E 023°38'0 0.0
2015-Apr-12 07:33N 37°56' E 023°38'0 0.0
2015-Apr-12 06:33N 37°56' E 023°38'0 0.1
2015-Apr-12 05:33N 37°56' E 023°38'4 4.1
2015-Apr-12 04:33N 37°57' E 023°33'5 4.9
2015-Apr-12 03:33N 38°02' E 023°32'0 0.0
2015-Apr-12 02:33N 38°02' E 023°32'0 0.0
2015-Apr-12 01:33N 38°02' E 023°32'0 0.0
2015-Apr-12 00:33N 38°02' E 023°32'  
Track history (hours):
 
Tides and Currents Weather Stations Pressure Air Temp Water Temp Dewpoint Dewpoint Depression Visibility Wind Speed Wind Dir Waves Ship Positions

Aegean Viii

Last reported at 2015-Apr-21 11:33 UTC. Time now 2015-Apr-21 19:07 UTC.
Position N 38°02' E 023°32'.

Length 12 m; draft 4.5 m.

Type: Tanker. MMSI: 240732000.

Date/timePositionNaut miles runAvg speedWind from/ knotsBaromVisibWave heightAir tempDewpointWater temp
2015-Apr-21 11:33N 38°02' E 023°32'6 5.6
2015-Apr-21 10:33N 37°57' E 023°34'6 5.7
2015-Apr-21 09:33N 37°52' E 023°32'0 0.0
2015-Apr-21 08:33N 37°52' E 023°32'0 0.0
2015-Apr-21 07:33N 37°52' E 023°32'0 0.0
2015-Apr-21 06:33N 37°52' E 023°32'4 3.9
2015-Apr-21 05:33N 37°55' E 023°34'7 7.1
2015-Apr-21 04:33N 38°02' E 023°32'0 0.1
2015-Apr-21 03:33N 38°02' E 023°32'0 0.0
2015-Apr-21 02:33N 38°02' E 023°32'0 0.0
2015-Apr-20 17:30N 38°02' E 023°32'2 2.2
2015-Apr-20 16:33N 38°02' E 023°35'1 0.3
2015-Apr-20 13:32N 38°02' E 023°36'0 0.0
2015-Apr-20 11:17N 38°02' E 023°36'0 0.0
2015-Apr-20 10:33N 38°02' E 023°36'1 0.8
2015-Apr-20 09:33N 38°02' E 023°35'0 0.1
2015-Apr-20 08:33N 38°02' E 023°35'2 2.2
2015-Apr-20 07:33N 38°02' E 023°32'0 0.0
2015-Apr-20 06:33N 38°02' E 023°32'0 0.0
2015-Apr-20 05:33N 38°02' E 023°32'0 0.0
2015-Apr-20 04:33N 38°02' E 023°32'3 0.1
2015-Apr-19 00:24N 38°02' E 023°36'0 0.0
2015-Apr-18 23:33N 38°02' E 023°36'0 0.0
2015-Apr-18 22:33N 38°02' E 023°36'0 0.0
2015-Apr-18 21:33N 38°02' E 023°36'1 0.9
2015-Apr-18 20:29N 38°01' E 023°35'0 0.0
2015-Apr-18 19:19N 38°01' E 023°35'0 0.1
2015-Apr-18 18:33N 38°01' E 023°35'0 0.0
2015-Apr-18 17:32N 38°01' E 023°35'0 0.1
2015-Apr-18 16:33N 38°01' E 023°35'0 0.1
2015-Apr-18 15:33N 38°01' E 023°35'4 4.2
2015-Apr-18 14:33N 37°57' E 023°34'2 1.6
2015-Apr-18 13:33N 37°57' E 023°36'0 0.0
2015-Apr-18 12:33N 37°57' E 023°36'1 0.9
2015-Apr-18 11:33N 37°57' E 023°36'1 1.4
2015-Apr-18 10:33N 37°56' E 023°38'0 0.0
2015-Apr-18 09:33N 37°56' E 023°38'0 0.1
2015-Apr-18 08:33N 37°56' E 023°38'0 0.2
2015-Apr-18 07:33N 37°56' E 023°38'0 0.0
2015-Apr-18 06:33N 37°56' E 023°38'0 0.0
2015-Apr-18 05:33N 37°56' E 023°38'0 0.0
2015-Apr-18 04:33N 37°56' E 023°38'4 4.3
2015-Apr-18 03:33N 37°58' E 023°33'5 4.8
2015-Apr-18 02:33N 38°02' E 023°32'0 0.0
2015-Apr-18 01:33N 38°02' E 023°32'0 0.0
2015-Apr-17 10:33N 38°02' E 023°32'0 0.0
2015-Apr-17 09:33N 38°02' E 023°32'0 0.0
2015-Apr-17 08:33N 38°02' E 023°32'3 3.1
2015-Apr-17 07:33N 37°59' E 023°33'4 1.1
2015-Apr-17 03:33N 37°56' E 023°37'2 2.2
2015-Apr-17 02:33N 37°57' E 023°35'0 0.0
2015-Apr-17 01:33N 37°57' E 023°35'0 0.1
2015-Apr-17 00:31N 37°57' E 023°35'0 0.1
2015-Apr-16 23:33N 37°57' E 023°34'0 0.0
2015-Apr-16 22:32N 37°57' E 023°34'0 0.0
2015-Apr-16 21:33N 37°57' E 023°34'0 0.0
2015-Apr-16 20:33N 37°57' E 023°34'0 0.0
2015-Apr-16 19:33N 37°57' E 023°34'0 0.0
2015-Apr-16 18:33N 37°57' E 023°34'0 0.0
2015-Apr-16 17:33N 37°57' E 023°34'2 1.7
2015-Apr-16 16:32N 37°58' E 023°33'4 0.4
2015-Apr-16 07:19N 38°02' E 023°32'0 0.0
2015-Apr-14 11:33N 38°02' E 023°32'4 4.3
2015-Apr-14 10:34N 37°58' E 023°33'5 4.5
2015-Apr-14 09:32N 37°56' E 023°38'0 0.0
2015-Apr-14 08:33N 37°56' E 023°38'0 0.0
2015-Apr-14 07:33N 37°56' E 023°38'0 0.0
2015-Apr-14 06:34N 37°56' E 023°38'0 0.0
2015-Apr-14 05:34N 37°56' E 023°38'4 4.4
2015-Apr-14 04:34N 37°58' E 023°33'5 4.7
2015-Apr-14 03:34N 38°02' E 023°32'0 0.0
2015-Apr-14 02:34N 38°02' E 023°32'0 0.0
2015-Apr-14 01:34N 38°02' E 023°32'0 0.0
2015-Apr-14 00:34N 38°02' E 023°32'0 0.0
2015-Apr-12 15:12N 38°02' E 023°32'3 4.1
2015-Apr-12 14:32N 38°02' E 023°35'0 0.3
2015-Apr-12 13:33N 38°02' E 023°36'0 0.0
2015-Apr-12 12:33N 38°02' E 023°36'0 0.0
2015-Apr-12 11:33N 38°02' E 023°36'5 4.8
2015-Apr-12 10:34N 37°57' E 023°35'2 2.4
2015-Apr-12 09:33N 37°56' E 023°38'0 0.0
2015-Apr-12 08:34N 37°56' E 023°38'0 0.0
2015-Apr-12 07:33N 37°56' E 023°38'0 0.0
2015-Apr-12 06:33N 37°56' E 023°38'0 0.1
2015-Apr-12 05:33N 37°56' E 023°38'4 4.1
2015-Apr-12 04:33N 37°57' E 023°33'5 4.9
2015-Apr-12 03:33N 38°02' E 023°32'0 0.0
2015-Apr-12 02:33N 38°02' E 023°32'0 0.0
2015-Apr-12 01:33N 38°02' E 023°32'0 0.0
2015-Apr-12 00:33N 38°02' E 023°32'  

Dump ship's entire track history